createdAt,value
2019-03-28T00:01:42.754Z,5.90
2019-03-28T00:04:18.126Z,5.90
2019-03-28T00:06:48.226Z,5.90
2019-03-28T00:09:18.331Z,5.80
2019-03-28T00:11:49.216Z,5.80
2019-03-28T00:14:19.983Z,5.80
2019-03-28T00:16:50.270Z,5.80
2019-03-28T00:19:20.727Z,5.80
2019-03-28T00:21:51.914Z,5.80
2019-03-28T00:24:32.101Z,5.70
2019-03-28T00:27:02.307Z,5.70
2019-03-28T00:29:33.910Z,5.80
2019-03-28T00:32:03.913Z,5.70
2019-03-28T00:34:34.305Z,5.70
2019-03-28T00:37:07.644Z,5.70
2019-03-28T00:39:38.717Z,5.70
2019-03-28T00:42:09.117Z,5.70
2019-03-28T00:44:39.969Z,5.70
2019-03-28T00:47:10.051Z,5.60
2019-03-28T00:49:40.373Z,5.60
2019-03-28T00:52:11.025Z,5.60
2019-03-28T00:54:41.430Z,5.60
2019-03-28T00:57:11.798Z,5.70
2019-03-28T00:59:42.148Z,5.70
2019-03-28T01:02:13.896Z,5.70
2019-03-28T01:04:44.307Z,5.60
2019-03-28T01:07:15.663Z,5.60
2019-03-28T01:09:45.665Z,5.60
2019-03-28T01:12:15.896Z,5.60
2019-03-28T01:14:46.401Z,5.60
2019-03-28T01:17:16.881Z,5.60
2019-03-28T01:19:47.081Z,5.60
2019-03-28T01:22:17.453Z,5.60
2019-03-28T01:24:48.155Z,5.60
2019-03-28T01:27:18.451Z,5.60
2019-03-28T01:29:48.788Z,5.50
2019-03-28T01:32:18.883Z,5.60
2019-03-28T01:34:49.203Z,5.60
2019-03-28T01:37:19.219Z,5.60
2019-03-28T01:39:49.490Z,5.60
2019-03-28T01:42:19.562Z,5.60
2019-03-28T01:44:49.877Z,5.60
2019-03-28T01:47:20.001Z,5.60
2019-03-28T01:49:51.703Z,5.60
2019-03-28T01:53:02.567Z,5.60
2019-03-28T01:55:01.283Z,5.70
2019-03-28T01:57:31.471Z,5.70
2019-03-28T02:00:01.742Z,5.70
2019-03-28T02:02:31.849Z,5.60
2019-03-28T02:05:01.939Z,5.50
2019-03-28T02:07:32.033Z,5.40
2019-03-28T02:10:05.067Z,5.50
2019-03-28T02:12:35.333Z,5.40
2019-03-28T02:15:05.782Z,5.40
2019-03-28T02:17:36.179Z,5.50
2019-03-28T02:20:07.146Z,5.50
2019-03-28T02:22:37.365Z,5.40
2019-03-28T02:25:08.274Z,5.40
2019-03-28T02:27:40.607Z,5.40
2019-03-28T02:30:11.025Z,5.40
2019-03-28T02:32:41.293Z,5.40
2019-03-28T02:35:11.698Z,5.40
2019-03-28T02:37:41.952Z,5.30
2019-03-28T02:40:12.291Z,5.30
2019-03-28T02:42:42.409Z,5.20
2019-03-28T02:45:12.717Z,5.30
2019-03-28T02:47:42.805Z,5.30
2019-03-28T02:50:13.014Z,5.30
2019-03-28T02:52:43.326Z,5.20
2019-03-28T02:55:13.402Z,5.20
2019-03-28T02:57:44.745Z,5.20
2019-03-28T03:00:15.304Z,5.30
2019-03-28T03:02:45.418Z,5.30
2019-03-28T03:05:15.855Z,5.30
2019-03-28T03:07:46.145Z,5.30
2019-03-28T03:10:17.552Z,5.30
2019-03-28T03:12:47.923Z,5.30
2019-03-28T03:15:18.082Z,5.30
2019-03-28T03:17:48.270Z,5.30
2019-03-28T03:20:18.435Z,5.20
2019-03-28T03:22:48.800Z,5.30
2019-03-28T03:25:19.024Z,5.30
2019-03-28T03:27:57.774Z,5.40
2019-03-28T03:30:21.415Z,5.30
2019-03-28T03:32:57.141Z,5.40
2019-03-28T03:35:26.700Z,5.40
2019-03-28T03:37:56.953Z,5.40
2019-03-28T03:40:27.259Z,5.30
2019-03-28T03:42:57.351Z,5.30
2019-03-28T03:45:27.827Z,5.30
2019-03-28T03:47:58.390Z,5.30
2019-03-28T03:50:29.666Z,5.30
2019-03-28T03:53:00.102Z,5.40
2019-03-28T03:55:30.340Z,5.40
2019-03-28T03:58:14.266Z,5.30
2019-03-28T04:00:33.867Z,5.30
2019-03-28T04:03:03.986Z,5.30
2019-03-28T04:05:34.239Z,5.30
2019-03-28T04:08:04.477Z,5.30
2019-03-28T04:10:34.716Z,5.30
2019-03-28T04:13:04.804Z,5.30
2019-03-28T04:15:35.028Z,5.30
2019-03-28T04:18:05.253Z,5.20
2019-03-28T04:20:38.177Z,5.30
2019-03-28T04:23:08.294Z,5.30
2019-03-28T04:25:40.173Z,5.30
2019-03-28T04:28:10.291Z,5.20
2019-03-28T04:30:40.820Z,5.20
2019-03-28T04:33:11.290Z,5.30
2019-03-28T04:35:41.368Z,5.20
2019-03-28T04:38:11.617Z,5.20
2019-03-28T04:40:41.780Z,5.20
2019-03-28T04:43:13.542Z,5.20
2019-03-28T04:45:43.687Z,5.30
2019-03-28T04:48:13.897Z,5.20
2019-03-28T04:50:47.063Z,5.20
2019-03-28T04:53:17.269Z,5.20
2019-03-28T04:55:47.476Z,5.20
2019-03-28T04:58:17.485Z,5.20
2019-03-28T05:00:47.639Z,5.20
2019-03-28T05:03:17.687Z,5.20
2019-03-28T05:05:47.810Z,5.20
2019-03-28T05:08:17.990Z,5.20
2019-03-28T05:10:48.191Z,5.30
2019-03-28T05:13:18.496Z,5.30
2019-03-28T05:15:48.715Z,5.30
2019-03-28T05:18:18.859Z,5.30
2019-03-28T05:20:49.159Z,5.20
2019-03-28T05:23:19.257Z,5.20
2019-03-28T05:25:50.249Z,5.20
2019-03-28T05:28:20.364Z,5.30
2019-03-28T05:30:50.661Z,5.40
2019-03-28T05:33:20.881Z,5.40
2019-03-28T05:35:51.121Z,5.40
2019-03-28T05:38:21.314Z,5.40
2019-03-28T05:40:53.349Z,5.50
2019-03-28T05:43:23.679Z,5.60
2019-03-28T05:46:03.245Z,5.60
2019-03-28T05:48:33.768Z,5.70
2019-03-28T05:51:04.018Z,5.60
2019-03-28T05:53:34.139Z,5.60
2019-03-28T05:56:04.725Z,5.70
2019-03-28T05:58:34.957Z,5.80
2019-03-28T06:01:05.058Z,5.80
2019-03-28T06:03:35.611Z,5.80
2019-03-28T06:06:05.967Z,5.90
2019-03-28T06:08:36.179Z,6.10
2019-03-28T06:11:06.657Z,6.10
2019-03-28T06:13:36.919Z,6.00
2019-03-28T06:16:17.127Z,6.10
2019-03-28T06:19:04.371Z,6.30
2019-03-28T06:21:52.971Z,6.30
2019-03-28T06:24:23.046Z,6.30
2019-03-28T06:26:53.306Z,6.50
2019-03-28T06:29:25.278Z,6.40
2019-03-28T06:31:55.930Z,6.50
2019-03-28T06:34:30.821Z,6.60
2019-03-28T06:37:01.168Z,6.80
2019-03-28T06:39:31.828Z,6.90
2019-03-28T06:42:02.721Z,7.10
2019-03-28T06:44:32.805Z,7.20
2019-03-28T06:47:03.991Z,7.20
2019-03-28T06:49:34.180Z,7.30
2019-03-28T06:52:04.304Z,7.40
2019-03-28T06:54:34.928Z,7.50
2019-03-28T06:57:05.537Z,7.60
2019-03-28T06:59:37.715Z,7.70
2019-03-28T07:02:07.515Z,7.80
2019-03-28T07:04:37.744Z,7.70
2019-03-28T07:07:10.665Z,7.60
2019-03-28T07:09:41.705Z,7.90
2019-03-28T07:12:12.471Z,8.10
2019-03-28T07:14:45.578Z,8.60
2019-03-28T07:17:15.967Z,8.70
2019-03-28T07:19:46.787Z,8.60
2019-03-28T07:22:17.079Z,9.10
2019-03-28T07:24:47.404Z,10.10
2019-03-28T07:27:20.464Z,10.90
2019-03-28T07:29:51.543Z,11.10
2019-03-28T07:32:21.974Z,11.80
2019-03-28T07:34:53.371Z,12.40
2019-03-28T07:37:23.779Z,12.20
2019-03-28T07:39:54.139Z,12.80
2019-03-28T07:42:25.964Z,12.30
2019-03-28T07:44:56.088Z,12.00
2019-03-28T07:47:26.391Z,12.10
2019-03-28T07:49:56.369Z,12.20
2019-03-28T07:52:27.529Z,11.80
2019-03-28T07:55:08.348Z,12.00
2019-03-28T07:57:38.710Z,12.10
2019-03-28T08:00:17.846Z,11.80
2019-03-28T08:02:48.031Z,11.90
2019-03-28T08:05:18.499Z,11.70
2019-03-28T08:07:48.830Z,11.30
2019-03-28T08:10:19.197Z,11.40
2019-03-28T08:12:49.369Z,11.40
2019-03-28T08:15:19.899Z,12.10
2019-03-28T08:17:50.371Z,12.30
2019-03-28T08:20:20.615Z,12.40
2019-03-28T08:22:57.054Z,12.60
2019-03-28T08:25:29.322Z,12.90
2019-03-28T08:27:59.606Z,13.50
2019-03-28T08:30:37.103Z,13.50
2019-03-28T08:33:08.196Z,14.20
2019-03-28T08:35:40.070Z,14.60
2019-03-28T08:38:10.540Z,15.40
2019-03-28T08:40:42.133Z,16.00
2019-03-28T08:43:12.972Z,15.70
2019-03-28T08:45:43.682Z,13.50
2019-03-28T08:48:14.200Z,14.70
2019-03-28T08:50:44.418Z,15.80
2019-03-28T08:53:15.016Z,15.50
2019-03-28T08:55:45.120Z,15.10
2019-03-28T08:58:15.200Z,14.60
2019-03-28T09:00:52.313Z,13.90
2019-03-28T09:03:21.908Z,12.00
2019-03-28T09:05:52.118Z,12.10
2019-03-28T09:08:22.322Z,12.40
2019-03-28T09:10:56.252Z,12.00
2019-03-28T09:13:27.706Z,11.60
2019-03-28T09:15:58.288Z,12.30
2019-03-28T09:18:28.429Z,11.80
2019-03-28T09:20:58.824Z,12.20
2019-03-28T09:23:29.277Z,12.20
2019-03-28T09:25:59.558Z,12.90
2019-03-28T09:28:30.078Z,13.10
2019-03-28T09:31:00.548Z,13.10
2019-03-28T09:33:31.243Z,13.10
2019-03-28T09:36:01.374Z,12.70
2019-03-28T09:38:37.011Z,13.70
2019-03-28T09:41:07.237Z,14.40
2019-03-28T09:43:38.068Z,14.30
2019-03-28T09:46:08.507Z,14.40
2019-03-28T09:48:39.328Z,13.20
2019-03-28T09:51:09.784Z,13.50
2019-03-28T09:53:40.380Z,14.60
2019-03-28T09:56:12.038Z,15.10
2019-03-28T09:58:42.693Z,14.90
2019-03-28T10:01:13.238Z,15.70
2019-03-28T10:03:43.373Z,15.20
2019-03-28T10:06:18.142Z,15.90
2019-03-28T10:08:48.419Z,14.80
2019-03-28T10:11:18.720Z,13.90
2019-03-28T10:13:48.960Z,14.30
2019-03-28T10:16:40.160Z,15.20
2019-03-28T10:18:55.094Z,15.80
2019-03-28T10:21:27.806Z,16.50
2019-03-28T10:23:57.973Z,16.90
2019-03-28T10:26:33.295Z,17.70
2019-03-28T10:29:05.249Z,15.50
2019-03-28T10:31:35.610Z,16.00
2019-03-28T10:34:07.341Z,16.50
2019-03-28T10:36:42.383Z,17.20
2019-03-28T10:39:17.223Z,16.60
2019-03-28T10:41:49.277Z,16.30
2019-03-28T10:44:23.220Z,15.40
2019-03-28T10:46:59.731Z,14.40
2019-03-28T10:49:29.989Z,14.50
2019-03-28T10:52:04.151Z,15.40
2019-03-28T10:54:36.121Z,16.10
2019-03-28T10:57:13.479Z,16.30
2019-03-28T10:59:38.385Z,16.30
2019-03-28T11:02:09.290Z,16.10
2019-03-28T11:04:42.049Z,15.80
2019-03-28T11:07:12.534Z,16.20
2019-03-28T11:09:42.865Z,16.10
2019-03-28T11:12:13.380Z,15.70
2019-03-28T11:14:46.426Z,16.30
2019-03-28T11:17:16.763Z,17.20
2019-03-28T11:19:47.193Z,18.70
2019-03-28T11:22:17.883Z,18.80
2019-03-28T11:24:48.106Z,17.60
2019-03-28T11:27:18.671Z,16.70
2019-03-28T11:29:49.097Z,17.20
2019-03-28T11:32:19.378Z,18.00
2019-03-28T11:34:49.490Z,19.90
2019-03-28T11:37:25.930Z,17.00
2019-03-28T11:39:51.571Z,14.60
2019-03-28T11:42:21.669Z,15.30
2019-03-28T11:44:52.783Z,17.40
2019-03-28T11:47:23.966Z,18.00
2019-03-28T11:49:54.311Z,16.10
2019-03-28T11:52:24.515Z,16.50
2019-03-28T11:54:55.020Z,18.10
2019-03-28T11:57:25.062Z,18.80
2019-03-28T11:59:57.864Z,16.30
2019-03-28T12:02:27.380Z,15.60
2019-03-28T12:04:57.769Z,15.70
2019-03-28T12:07:28.077Z,15.90
2019-03-28T12:09:58.373Z,16.10
2019-03-28T12:12:28.813Z,17.10
2019-03-28T12:14:58.919Z,16.90
2019-03-28T12:17:33.159Z,16.80
2019-03-28T12:20:03.281Z,17.70
2019-03-28T12:22:33.516Z,17.80
2019-03-28T12:25:03.714Z,15.70
2019-03-28T12:27:39.162Z,15.30
2019-03-28T12:30:11.084Z,15.60
2019-03-28T12:32:41.115Z,15.90
2019-03-28T12:35:11.685Z,15.90
2019-03-28T12:37:41.884Z,15.80
2019-03-28T12:40:12.540Z,16.20
2019-03-28T12:42:42.675Z,16.20
2019-03-28T12:45:13.309Z,16.10
2019-03-28T12:47:45.820Z,16.30
2019-03-28T12:50:17.639Z,15.90
2019-03-28T12:52:50.968Z,16.10
2019-03-28T12:55:21.179Z,15.80
2019-03-28T12:57:51.464Z,14.20
2019-03-28T13:00:34.348Z,14.10
2019-03-28T13:03:04.953Z,14.10
2019-03-28T13:05:35.918Z,14.00
2019-03-28T13:08:09.193Z,14.20
2019-03-28T13:10:39.509Z,14.30
2019-03-28T13:13:10.283Z,14.00
2019-03-28T13:15:41.517Z,13.90
2019-03-28T13:18:16.007Z,13.80
2019-03-28T13:20:46.583Z,13.80
2019-03-28T13:23:17.343Z,13.80
2019-03-28T13:25:47.924Z,13.50
2019-03-28T13:28:18.310Z,13.20
2019-03-28T13:30:48.872Z,13.10
2019-03-28T13:33:18.928Z,13.10
2019-03-28T13:35:49.315Z,12.90
2019-03-28T13:38:19.634Z,13.00
2019-03-28T13:40:50.067Z,13.10
2019-03-28T13:43:20.509Z,12.80
2019-03-28T13:45:50.956Z,12.80
2019-03-28T13:48:22.828Z,12.90
2019-03-28T13:50:54.825Z,13.00
2019-03-28T13:53:38.334Z,13.20
2019-03-28T13:55:57.116Z,13.10
2019-03-28T13:58:27.964Z,13.10
2019-03-28T14:01:01.645Z,13.00
2019-03-28T14:03:32.083Z,13.10
2019-03-28T14:06:02.434Z,12.80
2019-03-28T14:08:33.104Z,12.80
2019-03-28T14:11:03.502Z,13.00
2019-03-28T14:13:33.882Z,12.90
2019-03-28T14:16:07.972Z,12.80
2019-03-28T14:18:38.419Z,12.70
2019-03-28T14:21:08.639Z,12.60
2019-03-28T14:23:38.857Z,12.80
2019-03-28T14:26:09.099Z,13.00
2019-03-28T14:28:39.161Z,12.90
2019-03-28T14:31:09.294Z,12.90
2019-03-28T14:33:39.341Z,13.00
2019-03-28T14:36:09.243Z,12.90
2019-03-28T14:38:39.318Z,13.10
2019-03-28T14:41:09.274Z,12.90
2019-03-28T14:43:39.494Z,13.00
2019-03-28T14:46:09.575Z,12.90
2019-03-28T14:48:39.718Z,12.90
2019-03-28T14:51:12.927Z,12.70
2019-03-28T14:53:43.345Z,12.60
2019-03-28T14:56:13.785Z,12.40
2019-03-28T14:58:45.367Z,12.40
2019-03-28T15:01:15.587Z,12.30
2019-03-28T15:03:45.552Z,12.30
2019-03-28T15:06:17.228Z,12.30
2019-03-28T15:08:47.568Z,12.10
2019-03-28T15:11:17.824Z,12.00
2019-03-28T15:13:48.019Z,12.00
2019-03-28T15:16:18.146Z,11.90
2019-03-28T15:18:48.245Z,11.80
2019-03-28T15:21:19.910Z,11.80
2019-03-28T15:23:50.012Z,11.80
2019-03-28T15:26:20.165Z,11.80
2019-03-28T15:28:50.460Z,11.70
2019-03-28T15:31:21.620Z,11.70
2019-03-28T15:33:53.128Z,11.70
2019-03-28T15:36:23.410Z,11.70
2019-03-28T15:38:53.731Z,11.60
2019-03-28T15:41:27.099Z,11.60
2019-03-28T15:43:57.470Z,11.50
2019-03-28T15:46:30.787Z,11.50
2019-03-28T15:49:01.900Z,11.50
2019-03-28T15:51:32.499Z,11.60
2019-03-28T15:54:04.202Z,11.50
2019-03-28T15:56:40.140Z,11.50
2019-03-28T15:59:11.497Z,11.40
2019-03-28T16:01:43.210Z,11.50
2019-03-28T16:04:13.526Z,11.40
2019-03-28T16:06:44.774Z,11.30
2019-03-28T16:09:18.295Z,11.30
2019-03-28T16:12:02.048Z,11.30
2019-03-28T16:14:22.963Z,11.30
2019-03-28T16:16:57.961Z,11.30
2019-03-28T16:19:30.132Z,11.20
2019-03-28T16:22:04.192Z,11.20
2019-03-28T16:24:35.946Z,11.20
2019-03-28T16:27:08.113Z,11.00
2019-03-28T16:29:39.832Z,11.00
2019-03-28T16:32:11.732Z,11.00
2019-03-28T16:34:48.258Z,10.90
2019-03-28T16:37:25.022Z,10.90
2019-03-28T16:39:57.172Z,10.90
2019-03-28T16:42:28.711Z,10.90
2019-03-28T16:45:09.893Z,10.90
2019-03-28T16:47:43.375Z,10.90
2019-03-28T16:50:15.822Z,10.90
2019-03-28T16:52:51.276Z,10.90
2019-03-28T16:55:45.014Z,10.90
2019-03-28T16:58:21.862Z,11.00
2019-03-28T17:01:00.900Z,10.90
2019-03-28T17:03:38.779Z,10.90
2019-03-28T17:06:15.714Z,10.90
2019-03-28T17:08:58.068Z,10.90
2019-03-28T17:11:35.263Z,10.90
2019-03-28T17:14:07.451Z,10.90
2019-03-28T17:16:44.198Z,10.80
2019-03-28T17:19:19.422Z,10.80
2019-03-28T17:21:52.940Z,10.80
2019-03-28T17:24:28.109Z,10.70
2019-03-28T17:27:03.985Z,10.70
2019-03-28T17:29:40.567Z,10.60
2019-03-28T17:32:16.712Z,10.60
2019-03-28T17:34:56.530Z,10.50
2019-03-28T17:37:29.788Z,10.50
2019-03-28T17:40:02.344Z,10.50
2019-03-28T17:42:42.030Z,10.50
2019-03-28T17:45:28.143Z,10.40
2019-03-28T17:48:07.245Z,10.50
2019-03-28T17:50:43.701Z,10.50
2019-03-28T17:53:28.746Z,10.40
2019-03-28T17:56:16.241Z,10.40
2019-03-28T17:58:47.879Z,10.30
2019-03-28T18:01:19.108Z,10.30
2019-03-28T18:03:56.265Z,10.30
2019-03-28T18:06:35.822Z,10.30
2019-03-28T18:09:12.683Z,10.30
2019-03-28T18:11:45.028Z,10.30
2019-03-28T18:14:20.322Z,10.30
2019-03-28T18:16:57.203Z,10.30
2019-03-28T18:19:36.404Z,10.30
2019-03-28T18:22:14.741Z,10.20
2019-03-28T18:24:56.238Z,10.20
2019-03-28T18:27:27.604Z,10.30
2019-03-28T18:30:00.102Z,10.30
2019-03-28T18:32:30.380Z,10.20
2019-03-28T18:35:05.601Z,10.20
2019-03-28T18:37:34.469Z,10.20
2019-03-28T18:40:04.651Z,10.10
2019-03-28T18:42:34.794Z,10.10
2019-03-28T18:45:05.793Z,10.10
2019-03-28T18:47:36.144Z,10.00
2019-03-28T18:50:08.457Z,10.00
2019-03-28T18:52:42.495Z,10.00
2019-03-28T18:55:14.018Z,10.00
2019-03-28T18:57:47.095Z,9.90
2019-03-28T19:00:19.815Z,9.90
2019-03-28T19:02:52.949Z,9.80
2019-03-28T19:05:23.820Z,9.80
2019-03-28T19:07:54.804Z,9.80
2019-03-28T19:10:25.854Z,9.80
2019-03-28T19:12:57.024Z,9.70
2019-03-28T19:15:31.050Z,9.70
2019-03-28T19:18:05.125Z,9.70
2019-03-28T19:20:39.476Z,9.70
2019-03-28T19:23:11.218Z,9.70
2019-03-28T19:25:42.197Z,9.70
2019-03-28T19:28:13.430Z,9.60
2019-03-28T19:30:44.657Z,9.70
2019-03-28T19:33:15.830Z,9.60
2019-03-28T19:35:48.559Z,9.60
2019-03-28T19:38:20.913Z,9.60
2019-03-28T19:40:52.072Z,9.60
2019-03-28T19:43:23.576Z,9.60
2019-03-28T19:45:54.797Z,9.50
2019-03-28T19:48:31.395Z,9.50
2019-03-28T19:51:03.959Z,9.50
2019-03-28T19:53:35.801Z,9.50
2019-03-28T19:56:07.385Z,9.50
2019-03-28T19:58:39.517Z,9.40
2019-03-28T20:01:11.211Z,9.40
2019-03-28T20:03:46.904Z,9.40
2019-03-28T20:06:22.257Z,9.40
2019-03-28T20:08:51.248Z,9.40
2019-03-28T20:11:22.498Z,9.50
2019-03-28T20:13:57.005Z,9.40
2019-03-28T20:16:29.820Z,9.40
2019-03-28T20:19:02.113Z,9.40
2019-03-28T20:21:34.061Z,9.40
2019-03-28T20:24:05.528Z,9.30
2019-03-28T20:26:39.993Z,9.40
2019-03-28T20:29:14.531Z,9.30
2019-03-28T20:31:50.123Z,9.30
2019-03-28T20:34:21.460Z,9.30
2019-03-28T20:36:53.385Z,9.20
2019-03-28T20:39:23.851Z,9.30
2019-03-28T20:41:57.089Z,9.20
2019-03-28T20:44:31.513Z,9.20
2019-03-28T20:47:08.027Z,9.20
2019-03-28T20:49:41.092Z,9.20
2019-03-28T20:52:11.789Z,9.20
2019-03-28T20:54:42.651Z,9.20
2019-03-28T20:57:15.637Z,9.20
2019-03-28T20:59:46.981Z,9.20
2019-03-28T21:02:17.504Z,9.20
2019-03-28T21:04:49.375Z,9.10
2019-03-28T21:07:27.977Z,9.10
2019-03-28T21:10:03.881Z,9.10
2019-03-28T21:12:35.195Z,9.10
2019-03-28T21:15:09.223Z,9.10
2019-03-28T21:17:42.412Z,9.10
2019-03-28T21:20:13.026Z,9.10
2019-03-28T21:22:44.262Z,9.10
2019-03-28T21:25:15.214Z,9.00
2019-03-28T21:27:45.589Z,9.00
2019-03-28T21:30:27.241Z,9.00
2019-03-28T21:32:58.187Z,9.10
2019-03-28T21:35:34.726Z,9.00
2019-03-28T21:38:06.941Z,9.00
2019-03-28T21:40:38.925Z,9.00
2019-03-28T21:43:10.369Z,9.00
2019-03-28T21:45:45.947Z,9.00
2019-03-28T21:48:17.003Z,8.90
2019-03-28T21:50:47.837Z,8.90
2019-03-28T21:53:20.153Z,8.90
2019-03-28T21:55:57.454Z,8.90
2019-03-28T21:58:31.806Z,8.90
2019-03-28T22:01:06.931Z,8.90
2019-03-28T22:03:43.180Z,8.80
2019-03-28T22:06:15.827Z,8.80
2019-03-28T22:08:47.476Z,8.80
2019-03-28T22:11:17.967Z,8.70
2019-03-28T22:13:48.589Z,8.70
2019-03-28T22:16:22.048Z,8.70
2019-03-28T22:18:54.870Z,8.70
2019-03-28T22:21:30.963Z,8.70
2019-03-28T22:24:04.771Z,8.70
2019-03-28T22:26:36.624Z,8.70
2019-03-28T22:29:11.686Z,8.60
2019-03-28T22:31:44.553Z,8.60
2019-03-28T22:34:18.375Z,8.60
2019-03-28T22:36:57.719Z,8.60
2019-03-28T22:39:31.718Z,8.50
2019-03-28T22:42:07.499Z,8.50
2019-03-28T22:44:40.109Z,8.40
2019-03-28T22:47:12.448Z,8.30
2019-03-28T22:49:45.270Z,8.20
2019-03-28T22:52:25.458Z,8.20
2019-03-28T22:54:57.366Z,8.20
2019-03-28T22:57:30.679Z,8.10
2019-03-28T23:00:04.234Z,8.00
2019-03-28T23:02:36.110Z,7.90
2019-03-28T23:05:09.738Z,7.90
2019-03-28T23:07:41.687Z,7.80
2019-03-28T23:10:20.886Z,7.80
2019-03-28T23:12:51.140Z,7.70
2019-03-28T23:15:28.664Z,7.70
2019-03-28T23:18:01.721Z,7.60
2019-03-28T23:20:34.842Z,7.60
2019-03-28T23:23:07.677Z,7.50
2019-03-28T23:25:45.187Z,7.50
2019-03-28T23:28:17.513Z,7.40
2019-03-28T23:30:50.325Z,7.40
2019-03-28T23:33:23.255Z,7.30
2019-03-28T23:35:55.254Z,7.30
2019-03-28T23:38:27.558Z,7.20
2019-03-28T23:41:05.119Z,7.20
2019-03-28T23:43:39.493Z,7.20
2019-03-28T23:46:12.293Z,7.10
2019-03-28T23:48:45.106Z,7.10
2019-03-28T23:51:18.458Z,7.00
2019-03-28T23:53:52.300Z,7.00
2019-03-28T23:56:26.129Z,7.00
2019-03-28T23:59:03.477Z,7.00
